Time;durP1;ratioP1;P1;durP2;ratioP2;P2;SDS_P1;SDS_P2;PMS_P1;PMS_P2;Temp;Humidity;BMP_temperature;BMP_pressure;BME280_temperature;BME280_humidity;BME280_pressure;Samples;Min_cycle;Max_cycle;Signal;HPM_P1;HPM_P2
2022/05/27 00:00:04;;;;;;;3.80;2.47;;;15.30;99.90;;;;;;5071528;28;20223;-59
2022/05/27 00:02:31;;;;;;;3.00;2.30;;;15.40;99.90;;;;;;5071385;28;20204;-58
2022/05/27 00:04:58;;;;;;;2.73;2.30;;;15.40;99.90;;;;;;5071384;28;20215;-57
2022/05/27 00:07:25;;;;;;;2.40;2.20;;;15.50;99.90;;;;;;5071545;28;20709;-58
2022/05/27 00:09:51;;;;;;;8.07;2.47;;;15.50;99.90;;;;;;5071368;28;20685;-58
2022/05/27 00:12:18;;;;;;;5.47;2.63;;;15.50;99.90;;;;;;5071566;28;20697;-59
2022/05/27 00:14:45;;;;;;;2.60;2.37;;;15.60;99.90;;;;;;5071253;28;20215;-58
2022/05/27 00:17:14;;;;;;;3.20;2.33;;;15.60;99.90;;;;;;5071460;28;20204;-57
2022/05/27 00:19:41;;;;;;;2.87;2.30;;;15.60;99.90;;;;;;5071344;28;20213;-58
2022/05/27 00:22:08;;;;;;;6.17;2.70;;;15.60;99.90;;;;;;5071533;28;20523;-57
2022/05/27 00:24:36;;;;;;;3.83;2.67;;;15.60;99.90;;;;;;5073921;28;20274;-59
2022/05/27 00:27:03;;;;;;;2.70;2.13;;;15.70;99.90;;;;;;5074934;28;20697;-57
2022/05/27 00:29:29;;;;;;;3.60;2.40;;;15.70;99.90;;;;;;5075326;28;20211;-57
2022/05/27 00:31:56;;;;;;;3.27;2.40;;;15.70;99.90;;;;;;5075292;28;20631;-57
2022/05/27 00:34:24;;;;;;;4.73;2.47;;;15.70;99.90;;;;;;5075011;28;20212;-58
2022/05/27 00:36:51;;;;;;;3.97;2.40;;;15.70;99.90;;;;;;5075133;28;20205;-58
2022/05/27 00:39:18;;;;;;;2.60;2.40;;;15.70;99.90;;;;;;5075133;28;20208;-57
2022/05/27 00:41:45;;;;;;;3.60;2.30;;;15.70;99.90;;;;;;5074692;28;20200;-58
2022/05/27 00:44:12;;;;;;;8.40;2.90;;;15.80;99.90;;;;;;5075105;28;20212;-57
2022/05/27 00:46:43;;;;;;;3.97;2.50;;;15.80;99.90;;;;;;5075051;28;20224;-57
2022/05/27 00:49:12;;;;;;;3.57;2.70;;;15.80;99.90;;;;;;5075040;28;20213;-57
2022/05/27 00:51:50;;;;;;;4.63;2.37;;;15.80;99.90;;;;;;5074783;28;20561;-57
2022/05/27 00:54:19;;;;;;;4.33;2.70;;;15.70;99.90;;;;;;5074830;28;20189;-56
2022/05/27 00:56:51;;;;;;;4.10;2.40;;;15.70;99.90;;;;;;5074500;28;20220;-58
2022/05/27 00:59:21;;;;;;;2.70;2.20;;;15.70;99.90;;;;;;5074290;28;20602;-57
2022/05/27 01:01:47;;;;;;;2.80;2.40;;;15.70;99.90;;;;;;5074943;28;20197;-58
2022/05/27 01:04:15;;;;;;;4.40;2.40;;;15.70;99.90;;;;;;5074771;28;20205;-59
2022/05/27 01:06:43;;;;;;;7.40;2.60;;;15.70;99.90;;;;;;5074684;28;20205;-58
2022/05/27 01:09:10;;;;;;;3.53;2.20;;;15.60;99.90;;;;;;5074264;28;20226;-58
2022/05/27 01:12:15;;;;;;;5.40;2.50;;;15.60;99.90;;;;;;5074598;28;20204;-58
2022/05/27 01:14:58;;;;;;;4.80;2.40;;;15.60;99.90;;;;;;5074582;28;20284;-58
2022/05/27 01:17:33;;;;;;;3.20;2.47;;;15.60;99.90;;;;;;5074577;28;20540;-59
2022/05/27 01:20:19;;;;;;;4.53;2.57;;;15.60;99.90;;;;;;5074515;28;20184;-58
2022/05/27 01:23:01;;;;;;;3.33;2.20;;;15.60;99.90;;;;;;5074270;28;20643;-60
2022/05/27 01:26:04;;;;;;;2.73;2.27;;;15.60;99.90;;;;;;5074324;28;20267;-58
2022/05/27 01:28:39;;;;;;;3.50;2.40;;;15.50;99.90;;;;;;5074004;28;20234;-59
2022/05/27 01:31:16;;;;;;;5.50;2.50;;;15.50;99.90;;;;;;5074372;28;20434;-58
2022/05/27 01:33:52;;;;;;;3.53;2.47;;;15.50;99.90;;;;;;5073966;28;20196;-57
2022/05/27 01:36:27;;;;;;;3.90;2.43;;;15.50;99.90;;;;;;5072627;28;20193;-58
2022/05/27 01:39:03;;;;;;;9.77;3.03;;;15.50;99.90;;;;;;5073961;28;20185;-58
2022/05/27 01:41:42;;;;;;;3.87;2.23;;;15.40;99.90;;;;;;5074395;28;20563;-58
2022/05/27 01:44:13;;;;;;;3.43;2.30;;;15.30;99.90;;;;;;5074113;28;20204;-58
2022/05/27 01:46:44;;;;;;;5.33;2.50;;;15.40;99.90;;;;;;5073966;28;20461;-59
2022/05/27 01:49:19;;;;;;;5.67;2.30;;;15.30;99.90;;;;;;5073835;28;20209;-57
2022/05/27 01:51:50;;;;;;;3.00;2.20;;;15.30;99.90;;;;;;5073624;28;20189;-58
2022/05/27 01:54:20;;;;;;;3.00;2.33;;;15.20;99.90;;;;;;5073801;28;20284;-58
2022/05/27 01:56:50;;;;;;;5.50;2.40;;;15.20;99.90;;;;;;5073823;28;20291;-60
2022/05/27 01:59:21;;;;;;;3.47;2.20;;;15.30;99.90;;;;;;5073332;28;20706;-56
2022/05/27 02:01:55;;;;;;;2.60;2.40;;;15.20;99.90;;;;;;5073409;28;20204;-56
2022/05/27 02:04:32;;;;;;;2.43;2.10;;;15.20;99.90;;;;;;5073407;28;20189;-57
2022/05/27 02:07:03;;;;;;;4.97;2.17;;;15.20;99.90;;;;;;5073711;28;20193;-57
2022/05/27 02:09:35;;;;;;;4.60;2.53;;;15.20;99.90;;;;;;5073549;28;20647;-57
2022/05/27 02:12:07;;;;;;;5.43;2.20;;;15.20;99.90;;;;;;5073592;28;20200;-56
2022/05/27 02:14:44;;;;;;;6.50;2.40;;;15.20;99.90;;;;;;5073210;28;20189;-59
2022/05/27 02:17:17;;;;;;;4.13;2.20;;;15.20;99.90;;;;;;5073485;28;20196;-58
2022/05/27 02:19:49;;;;;;;7.83;2.50;;;15.20;99.90;;;;;;5073221;28;20199;-60
2022/05/27 02:22:21;;;;;;;3.93;2.27;;;15.20;99.90;;;;;;5073357;28;20219;-57
2022/05/27 02:24:52;;;;;;;3.93;2.27;;;15.20;99.90;;;;;;5073199;28;20189;-58
2022/05/27 02:27:24;;;;;;;3.13;2.37;;;15.20;99.90;;;;;;5073309;28;20604;-57
2022/05/27 02:29:55;;;;;;;6.07;2.17;;;15.20;99.90;;;;;;5072999;28;20186;-58
2022/05/27 02:32:27;;;;;;;3.63;2.10;;;15.20;99.90;;;;;;5072908;28;20189;-57
2022/05/27 02:35:09;;;;;;;3.43;2.20;;;15.20;99.90;;;;;;5073199;28;20250;-57
2022/05/27 02:37:39;;;;;;;7.03;2.83;;;15.20;99.90;;;;;;5072999;28;20552;-57
2022/05/27 02:40:10;;;;;;;4.77;2.20;;;15.20;99.90;;;;;;5073000;28;20205;-59
2022/05/27 02:42:49;;;;;;;2.33;2.13;;;15.30;99.90;;;;;;5072950;28;20205;-57
2022/05/27 02:45:25;;;;;;;3.80;2.57;;;15.20;99.90;;;;;;5072922;28;20671;-56
2022/05/27 02:48:03;;;;;;;3.17;2.40;;;15.20;99.90;;;;;;5072027;28;20327;-57
2022/05/27 02:50:38;;;;;;;3.90;2.53;;;15.30;99.90;;;;;;5072573;28;20196;-57
2022/05/27 02:53:12;;;;;;;3.47;2.20;;;15.30;99.90;;;;;;5072770;28;20647;-59
2022/05/27 02:56:00;;;;;;;3.30;2.20;;;15.30;99.90;;;;;;5072474;28;20201;-58
2022/05/27 02:58:29;;;;;;;2.77;2.10;;;15.30;99.90;;;;;;5072043;28;20249;-57
2022/05/27 03:00:56;;;;;;;2.87;2.10;;;15.30;99.90;;;;;;5072621;28;20566;-55
2022/05/27 03:03:24;;;;;;;3.13;2.10;;;15.30;99.90;;;;;;5072307;28;20205;-61
2022/05/27 03:06:04;;;;;;;2.33;1.90;;;15.30;99.90;;;;;;5072407;28;20566;-56
2022/05/27 03:08:36;;;;;;;2.80;2.10;;;15.20;99.90;;;;;;5072257;28;20219;-57
2022/05/27 03:11:12;;;;;;;4.73;2.37;;;15.20;99.90;;;;;;5072348;28;20189;-59
2022/05/27 03:14:03;;;;;;;6.07;2.10;;;15.20;99.90;;;;;;5072283;28;20192;-56
2022/05/27 03:16:39;;;;;;;3.37;2.23;;;15.30;99.90;;;;;;5072150;28;20243;-58
2022/05/27 03:19:35;;;;;;;3.67;2.37;;;15.30;99.90;;;;;;5072145;28;20189;-58
2022/05/27 03:22:15;;;;;;;3.60;2.10;;;15.40;99.90;;;;;;5071798;28;20195;-57
2022/05/27 03:24:54;;;;;;;5.33;2.20;;;15.30;99.90;;;;;;5072170;28;20213;-58
2022/05/27 03:27:34;;;;;;;6.43;2.13;;;15.30;99.90;;;;;;5071837;28;20283;-58
2022/05/27 03:30:06;;;;;;;6.77;2.40;;;15.40;99.90;;;;;;5071861;28;20308;-57
2022/05/27 03:32:41;;;;;;;2.97;2.30;;;15.40;99.90;;;;;;5071939;28;20200;-56
2022/05/27 03:35:16;;;;;;;4.47;2.13;;;15.30;99.90;;;;;;5072035;28;20189;-58
2022/05/27 03:37:49;;;;;;;5.57;2.73;;;15.30;99.90;;;;;;5072015;28;20631;-57
2022/05/27 03:40:21;;;;;;;2.80;2.33;;;15.40;99.90;;;;;;5071398;28;20189;-57
2022/05/27 03:42:48;;;;;;;3.10;2.40;;;15.40;99.90;;;;;;5071567;28;20189;-58
2022/05/27 03:45:17;;;;;;;6.00;2.70;;;15.40;99.90;;;;;;5071590;28;20347;-58
2022/05/27 03:47:45;;;;;;;4.70;2.37;;;15.40;99.90;;;;;;5071826;28;20551;-58
2022/05/27 03:50:17;;;;;;;5.20;3.50;;;15.40;99.90;;;;;;5071709;28;20273;-57
2022/05/27 03:52:46;;;;;;;7.77;3.80;;;15.50;99.90;;;;;;5071809;28;20189;-59
2022/05/27 03:55:17;;;;;;;6.17;3.13;;;15.50;99.90;;;;;;5071322;28;20224;-58
2022/05/27 03:57:44;;;;;;;3.83;2.27;;;15.50;99.90;;;;;;5070787;28;20710;-57
2022/05/27 04:00:13;;;;;;;6.40;2.50;;;15.50;99.90;;;;;;5071256;28;20562;-58
2022/05/27 04:02:40;;;;;;;4.20;2.63;;;15.50;99.90;;;;;;5071251;28;20209;-57
2022/05/27 04:05:08;;;;;;;3.77;2.63;;;15.60;99.90;;;;;;5071329;28;20204;-58
2022/05/27 04:07:36;;;;;;;3.83;2.60;;;15.60;99.90;;;;;;5071528;28;20200;-57
2022/05/27 04:10:04;;;;;;;4.80;2.67;;;15.70;99.90;;;;;;5071129;28;20231;-57
2022/05/27 04:12:31;;;;;;;3.13;2.40;;;15.70;99.90;;;;;;5071392;28;20511;-57
2022/05/27 04:14:57;;;;;;;2.90;2.40;;;15.70;99.90;;;;;;5071503;28;20201;-57
2022/05/27 04:17:31;;;;;;;4.83;2.60;;;15.70;99.90;;;;;;5070871;28;20201;-59
2022/05/27 04:19:59;;;;;;;4.53;2.10;;;15.80;99.90;;;;;;5071171;28;20601;-56
2022/05/27 04:22:26;;;;;;;5.53;2.40;;;15.80;99.90;;;;;;5071169;28;20682;-59
2022/05/27 04:24:54;;;;;;;3.23;2.47;;;15.90;99.90;;;;;;5071008;28;20205;-57
2022/05/27 04:27:22;;;;;;;3.20;2.30;;;15.90;99.90;;;;;;5071287;28;20705;-58
2022/05/27 04:29:52;;;;;;;3.60;2.13;;;16.00;99.90;;;;;;5071252;28;20243;-58
2022/05/27 04:32:20;;;;;;;3.67;2.20;;;16.00;99.90;;;;;;5071220;28;20205;-57
2022/05/27 04:34:47;;;;;;;4.67;2.13;;;16.00;99.90;;;;;;5071223;28;20205;-57
2022/05/27 04:37:14;;;;;;;3.63;2.20;;;16.10;99.90;;;;;;5071040;28;20205;-58
2022/05/27 04:39:42;;;;;;;4.07;2.17;;;16.10;99.90;;;;;;5070863;28;20212;-58
2022/05/27 04:42:10;;;;;;;4.57;2.20;;;16.20;99.90;;;;;;5071057;28;20559;-57
2022/05/27 04:44:38;;;;;;;3.17;1.90;;;16.20;99.90;;;;;;5071487;28;20654;-58
2022/05/27 04:47:05;;;;;;;5.63;2.20;;;16.30;99.90;;;;;;5071299;28;20208;-57
2022/05/27 04:52:16;;;;;;;5.73;2.13;;;16.40;99.90;;;;;;5071009;28;20196;-59
2022/05/27 04:54:43;;;;;;;3.07;2.17;;;16.50;99.90;;;;;;5071072;28;20265;-58
2022/05/27 04:57:14;;;;;;;6.13;2.60;;;16.50;99.90;;;;;;5070698;28;20569;-60
2022/05/27 04:59:41;;;;;;;4.93;2.80;;;16.60;99.90;;;;;;5070893;28;20240;-57
2022/05/27 05:02:09;;;;;;;6.47;3.43;;;16.70;99.90;;;;;;5070612;28;20667;-58
2022/05/27 05:04:35;;;;;;;3.83;2.10;;;16.70;99.90;;;;;;5070489;28;20200;-58
2022/05/27 05:07:06;;;;;;;5.03;2.43;;;16.70;99.90;;;;;;5070684;28;20206;-58
2022/05/27 05:09:33;;;;;;;1.87;1.70;;;16.70;99.90;;;;;;5071705;28;20209;-57
2022/05/27 05:12:00;;;;;;;3.20;1.73;;;16.70;99.90;;;;;;5074551;28;20211;-58
2022/05/27 05:14:28;;;;;;;3.43;1.80;;;16.70;99.90;;;;;;5074464;28;20205;-58
2022/05/27 05:16:55;;;;;;;6.13;2.10;;;16.80;99.90;;;;;;5074556;28;20208;-58
2022/05/27 05:19:22;;;;;;;3.50;1.90;;;16.80;99.90;;;;;;5074383;28;20697;-58
2022/05/27 05:21:48;;;;;;;3.63;1.90;;;16.90;99.90;;;;;;5074506;28;20208;-59
2022/05/27 05:24:15;;;;;;;3.30;1.73;;;16.90;99.90;;;;;;5073934;28;20205;-62
2022/05/27 05:26:42;;;;;;;4.10;1.77;;;16.90;99.90;;;;;;5074243;28;20204;-58
2022/05/27 05:29:09;;;;;;;2.83;1.60;;;16.90;99.90;;;;;;5073923;28;20231;-58
2022/05/27 05:31:37;;;;;;;4.50;1.87;;;16.90;99.90;;;;;;5074197;28;20207;-57
2022/05/27 05:34:04;;;;;;;4.80;2.00;;;17.00;99.90;;;;;;5074047;28;20200;-58
2022/05/27 05:36:31;;;;;;;2.70;1.90;;;17.00;99.90;;;;;;5074064;28;20201;-58
2022/05/27 05:38:58;;;;;;;3.07;1.83;;;17.00;99.90;;;;;;5073652;28;20211;-57
2022/05/27 05:41:27;;;;;;;2.73;1.70;;;17.10;99.90;;;;;;5074015;28;20204;-59
2022/05/27 05:43:54;;;;;;;2.87;1.73;;;17.10;99.90;;;;;;5073667;28;20210;-57
2022/05/27 05:46:21;;;;;;;3.97;2.90;;;17.00;99.90;;;;;;5073794;28;20240;-57
2022/05/27 05:48:50;;;;;;;6.27;2.20;;;17.10;99.90;;;;;;5073721;28;20678;-57
2022/05/27 05:51:17;;;;;;;3.63;1.83;;;17.10;99.90;;;;;;5073365;28;20215;-59
2022/05/27 05:53:44;;;;;;;3.13;1.63;;;17.10;99.90;;;;;;5073764;28;20212;-57
2022/05/27 05:56:11;;;;;;;2.23;1.70;;;17.10;99.90;;;;;;5073541;28;20212;-60
2022/05/27 05:58:38;;;;;;;4.23;1.63;;;17.20;99.90;;;;;;5073110;28;20248;-59
2022/05/27 06:01:05;;;;;;;3.73;1.87;;;17.20;99.90;;;;;;5073436;28;20560;-60
2022/05/27 06:03:32;;;;;;;8.53;1.70;;;17.30;99.90;;;;;;5073469;28;20582;-57
2022/05/27 06:06:00;;;;;;;9.30;2.90;;;17.40;99.90;;;;;;5073473;28;20204;-58
2022/05/27 06:08:27;;;;;;;1.93;1.60;;;17.40;99.90;;;;;;5073569;28;20208;-56
2022/05/27 06:10:54;;;;;;;5.90;1.70;;;17.50;99.90;;;;;;5072878;28;20225;-58
2022/05/27 06:13:21;;;;;;;5.93;2.97;;;17.60;99.90;;;;;;5073559;28;20566;-57
2022/05/27 06:15:47;;;;;;;4.77;1.87;;;17.60;99.90;;;;;;5073540;28;20299;-59
2022/05/27 06:18:15;;;;;;;1.40;1.30;;;17.70;99.90;;;;;;5073400;28;20293;-58
2022/05/27 06:20:42;;;;;;;4.67;1.50;;;17.80;99.90;;;;;;5073282;28;20201;-60
2022/05/27 06:23:11;;;;;;;6.80;1.73;;;17.90;99.90;;;;;;5072787;28;20201;-60
2022/05/27 06:25:39;;;;;;;3.57;1.90;;;18.00;99.90;;;;;;5073624;28;20205;-60
2022/05/27 06:36:21;;;;;;;2.57;1.60;;;18.30;99.90;;;;;;5072963;28;20706;-59
2022/05/27 06:38:49;;;;;;;3.90;1.70;;;18.40;99.90;;;;;;5072849;28;20209;-58
2022/05/27 06:41:17;;;;;;;3.73;1.90;;;18.50;99.90;;;;;;5073134;28;20205;-58
2022/05/27 06:43:45;;;;;;;3.23;1.53;;;18.50;99.90;;;;;;5073001;28;20210;-57
2022/05/27 06:46:13;;;;;;;5.13;1.87;;;18.60;99.90;;;;;;5072765;28;20666;-59
2022/05/27 06:48:40;;;;;;;2.30;1.63;;;18.60;99.90;;;;;;5072968;28;20209;-59
2022/05/27 06:51:07;;;;;;;4.10;1.97;;;18.70;99.90;;;;;;5072511;28;20585;-59
2022/05/27 06:53:34;;;;;;;3.00;1.70;;;18.80;99.90;;;;;;5072689;28;20567;-58
2022/05/27 06:56:03;;;;;;;3.63;1.90;;;18.80;99.90;;;;;;5072283;28;20242;-60
2022/05/27 06:58:30;;;;;;;3.80;1.73;;;18.90;99.90;;;;;;5072216;28;20246;-59
2022/05/27 07:00:56;;;;;;;3.53;1.60;;;18.90;99.90;;;;;;5072352;28;20203;-58
2022/05/27 07:03:23;;;;;;;1.70;1.50;;;18.90;99.90;;;;;;5072481;28;20212;-58
2022/05/27 07:05:50;;;;;;;4.17;1.73;;;18.90;99.90;;;;;;5072345;28;20202;-57
2022/05/27 07:08:17;;;;;;;5.40;1.57;;;18.90;99.90;;;;;;5072402;28;20678;-60
2022/05/27 07:10:44;;;;;;;3.93;1.80;;;19.00;99.90;;;;;;5072514;28;20583;-59
2022/05/27 07:13:13;;;;;;;2.30;1.43;;;19.00;99.90;;;;;;5072233;28;20691;-59
2022/05/27 07:15:40;;;;;;;5.27;1.77;;;19.10;99.90;;;;;;5072446;28;20229;-61
2022/05/27 07:18:09;;;;;;;3.53;1.80;;;19.10;99.90;;;;;;5072255;28;20210;-59
2022/05/27 07:20:37;;;;;;;1.73;1.37;;;19.10;99.90;;;;;;5072249;28;20258;-62
2022/05/27 07:23:04;;;;;;;4.87;1.47;;;19.20;99.90;;;;;;5072228;28;20215;-59
2022/05/27 07:25:35;;;;;;;2.73;1.50;;;19.30;99.90;;;;;;5072299;28;20205;-58
2022/05/27 07:28:01;;;;;;;4.03;1.50;;;19.30;99.90;;;;;;5071889;28;20248;-58
2022/05/27 07:30:30;;;;;;;3.43;1.47;;;19.40;99.90;;;;;;5072139;28;20231;-60
2022/05/27 07:32:57;;;;;;;2.37;1.60;;;19.50;99.90;;;;;;5072063;28;20519;-59
2022/05/27 07:35:24;;;;;;;3.17;1.70;;;19.40;99.90;;;;;;5072078;28;20235;-57
2022/05/27 07:37:51;;;;;;;4.87;1.90;;;19.50;99.90;;;;;;5071994;28;20213;-60
2022/05/27 07:40:18;;;;;;;3.17;1.47;;;19.60;99.90;;;;;;5072086;28;20201;-58
2022/05/27 07:42:45;;;;;;;3.43;1.70;;;19.50;99.90;;;;;;5071854;28;20639;-58
2022/05/27 07:45:13;;;;;;;4.43;1.60;;;19.50;99.90;;;;;;5071741;28;20204;-59
2022/05/27 07:47:41;;;;;;;3.43;1.50;;;19.50;99.90;;;;;;5071779;28;20205;-57
2022/05/27 07:50:13;;;;;;;4.07;1.63;;;19.50;99.90;;;;;;5071860;28;20224;-58
2022/05/27 07:52:42;;;;;;;4.37;1.53;;;19.50;99.90;;;;;;5071799;28;20188;-60
2022/05/27 07:55:10;;;;;;;1.83;1.30;;;19.60;99.90;;;;;;5071899;28;20643;-61
2022/05/27 07:57:42;;;;;;;4.13;1.40;;;19.60;99.90;;;;;;5071615;28;20659;-58
2022/05/27 08:00:11;;;;;;;1.53;1.20;;;19.60;99.90;;;;;;5071657;28;20549;-62
2022/05/27 08:02:38;;;;;;;4.53;1.63;;;19.70;99.90;;;;;;5071892;28;20205;-62
2022/05/27 08:05:08;;;;;;;1.47;1.37;;;19.70;99.90;;;;;;5071863;28;20208;-58
2022/05/27 08:07:35;;;;;;;6.40;1.60;;;19.80;99.90;;;;;;5071439;28;20209;-58
2022/05/27 08:10:02;;;;;;;4.27;1.60;;;19.90;99.90;;;;;;5071196;28;20228;-57
2022/05/27 08:12:29;;;;;;;4.57;1.40;;;19.90;99.90;;;;;;5071703;28;20204;-58
2022/05/27 08:14:55;;;;;;;2.10;1.60;;;19.90;99.90;;;;;;5071557;28;20688;-58
2022/05/27 08:17:22;;;;;;;5.07;2.07;;;20.00;99.90;;;;;;5071464;28;20224;-59
2022/05/27 08:19:49;;;;;;;3.03;1.40;;;20.00;99.90;;;;;;5071117;28;20207;-59
2022/05/27 08:22:17;;;;;;;4.93;1.50;;;20.00;99.90;;;;;;5071556;28;20200;-58
2022/05/27 08:24:44;;;;;;;3.23;1.50;;;20.10;99.90;;;;;;5071314;28;20218;-58
2022/05/27 08:27:11;;;;;;;2.57;1.50;;;20.20;99.90;;;;;;5071515;28;20204;-59
2022/05/27 08:29:38;;;;;;;1.93;1.20;;;20.20;99.90;;;;;;5071436;28;20228;-59
2022/05/27 08:32:05;;;;;;;4.83;1.60;;;20.20;99.90;;;;;;5071488;28;20210;-58
2022/05/27 08:40:08;;;;;;;3.83;1.50;;;20.40;99.90;;;;;;5071141;28;20200;-61
2022/05/27 08:42:42;;;;;;;4.10;1.40;;;20.50;99.90;;;;;;5070902;28;20185;-61
2022/05/27 08:45:15;;;;;;;2.30;1.37;;;20.60;99.90;;;;;;5073086;28;20192;-58
2022/05/27 08:47:46;;;;;;;3.23;1.40;;;20.60;99.90;;;;;;5075179;28;20191;-59
2022/05/27 08:50:23;;;;;;;2.23;1.30;;;20.60;99.40;;;;;;5074951;28;20214;-58
2022/05/27 08:52:56;;;;;;;2.13;1.17;;;20.70;99.20;;;;;;5075073;28;20619;-58
2022/05/27 09:01:12;;;;;;;2.83;1.63;;;20.70;99.40;;;;;;5074854;28;20179;-59
2022/05/27 09:03:44;;;;;;;7.40;1.77;;;20.80;98.80;;;;;;5074859;28;20209;-58
2022/05/27 09:06:13;;;;;;;2.43;1.50;;;20.80;98.60;;;;;;5074944;28;20207;-58
2022/05/27 09:08:42;;;;;;;2.30;1.30;;;20.80;98.20;;;;;;5074708;28;20295;-58
2022/05/27 09:11:22;;;;;;;3.77;1.30;;;20.70;97.50;;;;;;5074694;28;20231;-59
2022/05/27 09:13:56;;;;;;;3.80;1.73;;;20.70;98.10;;;;;;5074629;28;20321;-58
2022/05/27 09:16:30;;;;;;;4.07;1.63;;;20.70;98.60;;;;;;5074593;28;20235;-58
2022/05/27 09:19:05;;;;;;;2.20;1.30;;;20.80;97.90;;;;;;5074860;28;20188;-58
2022/05/27 09:21:38;;;;;;;2.27;1.60;;;20.80;97.90;;;;;;5074458;28;20194;-58
2022/05/27 09:24:30;;;;;;;3.30;1.30;;;20.70;98.30;;;;;;5074712;28;20221;-58
2022/05/27 09:27:03;;;;;;;4.23;1.40;;;20.80;98.50;;;;;;5074582;28;20659;-58
2022/05/27 09:29:59;;;;;;;1.47;1.30;;;20.80;97.90;;;;;;5074413;28;20193;-58
2022/05/27 09:32:34;;;;;;;1.90;1.47;;;20.90;98.10;;;;;;5074535;28;20569;-58
2022/05/27 09:35:06;;;;;;;3.60;1.50;;;21.00;97.90;;;;;;5074415;28;20734;-60
2022/05/27 09:37:38;;;;;;;2.77;1.57;;;21.10;97.80;;;;;;5074173;28;20195;-59
2022/05/27 09:40:14;;;;;;;2.23;1.30;;;21.10;97.70;;;;;;5074273;28;20194;-60
2022/05/27 09:42:47;;;;;;;3.80;1.70;;;21.20;98.10;;;;;;5074091;28;20195;-58
2022/05/27 09:45:13;;;;;;;5.43;1.70;;;21.30;97.90;;;;;;5074236;28;20204;-58
2022/05/27 09:47:42;;;;;;;4.93;1.40;;;21.40;98.00;;;;;;5074038;28;20227;-58
2022/05/27 09:50:21;;;;;;;4.37;1.60;;;21.40;97.50;;;;;;5073734;28;20452;-58
2022/05/27 09:52:50;;;;;;;2.13;1.47;;;21.40;97.50;;;;;;5074021;28;20318;-59
2022/05/27 09:55:24;;;;;;;3.63;1.63;;;21.40;97.00;;;;;;5073936;28;20211;-58
2022/05/27 09:57:56;;;;;;;4.57;1.60;;;21.40;96.70;;;;;;5072597;28;20250;-58
2022/05/27 10:00:44;;;;;;;2.90;1.67;;;21.40;96.70;;;;;;5073521;28;20203;-59
2022/05/27 10:03:34;;;;;;;3.43;1.60;;;21.50;97.00;;;;;;5073880;28;20231;-59
2022/05/27 10:06:05;;;;;;;2.63;1.50;;;21.60;97.10;;;;;;5074275;28;20578;-60
2022/05/27 10:08:40;;;;;;;1.57;1.30;;;21.60;96.60;;;;;;5073735;28;20193;-58
2022/05/27 10:11:10;;;;;;;5.20;2.03;;;21.70;96.50;;;;;;5073591;28;20346;-58
2022/05/27 10:13:40;;;;;;;2.07;1.37;;;21.70;96.60;;;;;;5073466;28;20189;-59
2022/05/27 10:16:11;;;;;;;2.63;1.50;;;21.70;96.40;;;;;;5073268;28;20189;-59
2022/05/27 10:18:39;;;;;;;2.53;1.50;;;21.80;96.50;;;;;;5073179;28;20197;-59
2022/05/27 10:21:12;;;;;;;3.53;1.80;;;21.90;96.70;;;;;;5073432;28;20623;-59
2022/05/27 10:23:41;;;;;;;2.17;1.50;;;22.10;96.60;;;;;;5073742;28;20707;-58
2022/05/27 10:26:24;;;;;;;3.37;1.50;;;22.20;96.20;;;;;;5073170;28;20223;-59
2022/05/27 10:29:03;;;;;;;2.90;1.43;;;22.40;95.80;;;;;;5073544;28;20216;-59
2022/05/27 10:31:31;;;;;;;2.93;1.63;;;22.50;96.20;;;;;;5073084;28;20209;-59
2022/05/27 10:34:00;;;;;;;9.90;2.23;;;22.60;95.10;;;;;;5073214;28;20613;-58
2022/05/27 10:36:52;;;;;;;4.47;1.73;;;22.60;94.80;;;;;;5073212;28;20210;-60
2022/05/27 10:39:28;;;;;;;3.77;1.70;;;22.70;94.30;;;;;;5073077;28;20202;-60
2022/05/27 10:42:09;;;;;;;2.20;1.40;;;22.60;94.30;;;;;;5072645;28;20238;-59
2022/05/27 10:44:48;;;;;;;3.53;1.47;;;22.60;94.20;;;;;;5072848;28;20596;-59
2022/05/27 10:47:28;;;;;;;2.80;1.60;;;22.60;93.80;;;;;;5072940;28;20669;-60
2022/05/27 10:50:09;;;;;;;2.97;1.63;;;22.50;94.10;;;;;;5072883;28;20200;-58
2022/05/27 10:52:49;;;;;;;1.50;1.40;;;22.50;94.20;;;;;;5072618;28;20190;-59
2022/05/27 10:55:24;;;;;;;1.77;1.57;;;22.50;94.20;;;;;;5072633;28;20554;-61
2022/05/27 11:04:25;;;;;;;2.70;1.80;;;22.40;94.30;;;;;;5072817;28;20184;-60
2022/05/27 11:07:06;;;;;;;4.00;1.70;;;22.40;94.50;;;;;;5072365;28;20208;-59
2022/05/27 11:09:45;;;;;;;7.70;2.03;;;22.30;94.60;;;;;;5072281;28;20208;-58
2022/05/27 11:12:19;;;;;;;2.67;2.30;;;22.30;94.60;;;;;;5072511;28;20216;-60
2022/05/27 11:15:12;;;;;;;3.10;1.70;;;22.30;94.60;;;;;;5072272;28;20196;-60
2022/05/27 11:17:49;;;;;;;3.53;2.30;;;22.20;94.60;;;;;;5072116;28;20224;-58
2022/05/27 11:20:52;;;;;;;5.13;2.67;;;22.20;95.00;;;;;;5071825;28;20192;-59
2022/05/27 11:23:43;;;;;;;3.63;1.83;;;22.10;95.00;;;;;;5071935;28;20295;-60
2022/05/27 11:26:16;;;;;;;4.20;2.00;;;22.20;95.10;;;;;;5071726;28;20575;-59
2022/05/27 11:29:01;;;;;;;3.20;2.00;;;22.20;95.30;;;;;;5071997;28;20185;-58
2022/05/27 11:31:42;;;;;;;3.43;1.90;;;22.30;95.40;;;;;;5071663;28;20564;-59
2022/05/27 11:34:22;;;;;;;2.70;1.90;;;22.30;95.40;;;;;;5072109;28;20193;-62
2022/05/27 11:37:02;;;;;;;7.20;2.00;;;22.40;95.60;;;;;;5071687;28;20679;-58
2022/05/27 11:40:02;;;;;;;2.37;1.80;;;22.50;95.80;;;;;;5071724;28;20193;-58
2022/05/27 11:42:48;;;;;;;2.77;1.80;;;22.60;95.10;;;;;;5071844;28;20208;-60
2022/05/27 11:45:20;;;;;;;2.07;1.70;;;22.60;94.50;;;;;;5071498;28;20191;-58
2022/05/27 11:48:04;;;;;;;5.93;1.90;;;22.60;94.40;;;;;;5071669;28;20193;-59
2022/05/27 11:50:47;;;;;;;4.63;1.87;;;22.60;94.50;;;;;;5071660;28;20185;-62
2022/05/27 11:53:34;;;;;;;6.60;1.83;;;22.70;94.50;;;;;;5071445;28;20193;-57
2022/05/27 11:56:13;;;;;;;4.67;1.70;;;22.80;93.90;;;;;;5071911;28;20268;-61
2022/05/27 11:58:52;;;;;;;4.70;1.97;;;22.70;94.20;;;;;;5071549;28;20636;-57
2022/05/27 12:01:34;;;;;;;6.80;1.87;;;22.70;94.40;;;;;;5071310;28;20217;-59
2022/05/27 12:04:10;;;;;;;4.57;1.80;;;22.60;94.50;;;;;;5071691;28;20190;-60
2022/05/27 12:06:45;;;;;;;3.47;1.77;;;22.60;94.40;;;;;;5071576;28;20194;-59
2022/05/27 12:09:23;;;;;;;3.93;1.60;;;22.50;94.20;;;;;;5071598;28;20271;-57
2022/05/27 12:11:56;;;;;;;5.57;1.90;;;22.40;94.40;;;;;;5071267;28;20214;-60
2022/05/27 12:14:30;;;;;;;4.40;2.90;;;22.40;94.80;;;;;;5071401;28;20194;-61
2022/05/27 12:16:59;;;;;;;2.70;1.60;;;22.50;95.10;;;;;;5071447;28;20192;-58
2022/05/27 12:19:32;;;;;;;4.03;1.60;;;22.70;94.70;;;;;;5070857;28;20208;-59
2022/05/27 12:22:06;;;;;;;4.63;2.03;;;22.60;94.50;;;;;;5071307;28;20192;-57
2022/05/27 12:24:37;;;;;;;4.03;2.17;;;22.70;94.70;;;;;;5071651;28;20550;-59
2022/05/27 12:27:06;;;;;;;4.93;1.83;;;22.70;94.90;;;;;;5071471;28;20543;-59
2022/05/27 12:29:34;;;;;;;2.63;1.77;;;22.90;94.50;;;;;;5071615;28;20205;-59
2022/05/27 12:32:01;;;;;;;4.97;1.90;;;22.90;94.30;;;;;;5071366;28;20226;-59
2022/05/27 12:34:42;;;;;;;1.60;1.47;;;22.90;94.50;;;;;;5071460;28;20205;-60
2022/05/27 12:37:25;;;;;;;6.63;1.80;;;23.00;94.60;;;;;;5071293;28;20227;-57
2022/05/27 12:39:56;;;;;;;3.87;1.77;;;23.00;94.10;;;;;;5071097;28;20185;-59
2022/05/27 12:42:39;;;;;;;2.37;1.60;;;23.00;94.30;;;;;;5071210;28;20189;-58
2022/05/27 12:45:22;;;;;;;2.03;1.50;;;23.00;93.60;;;;;;5071240;28;20258;-59
2022/05/27 12:47:52;;;;;;;5.13;1.60;;;22.90;93.30;;;;;;5071442;28;20190;-60
2022/05/27 12:50:26;;;;;;;2.50;1.67;;;22.90;93.60;;;;;;5071149;28;20723;-58
2022/05/27 12:52:57;;;;;;;2.93;1.73;;;22.90;93.50;;;;;;5071045;28;20219;-57
2022/05/27 13:01:23;;;;;;;2.83;1.43;;;22.80;93.50;;;;;;5070818;28;20194;-59
2022/05/27 13:03:52;;;;;;;3.97;1.50;;;22.70;93.40;;;;;;5071153;28;20568;-58
2022/05/27 13:06:39;;;;;;;3.50;1.90;;;22.60;93.70;;;;;;5070875;28;20213;-58
2022/05/27 13:09:10;;;;;;;2.73;1.70;;;22.60;94.20;;;;;;5071079;28;20205;-60
2022/05/27 13:11:44;;;;;;;4.67;1.93;;;22.60;93.60;;;;;;5071101;28;20282;-58
2022/05/27 13:14:19;;;;;;;3.03;1.60;;;22.70;93.30;;;;;;5070595;28;20193;-58
2022/05/27 13:16:49;;;;;;;3.23;1.90;;;22.70;93.00;;;;;;5070882;28;20203;-60
2022/05/27 13:19:29;;;;;;;3.70;1.73;;;22.70;93.20;;;;;;5071196;28;20289;-59
2022/05/27 13:21:59;;;;;;;3.40;1.77;;;22.80;93.30;;;;;;5071143;28;20799;-58
2022/05/27 13:24:33;;;;;;;5.63;1.70;;;22.80;93.20;;;;;;5070897;28;20214;-61
2022/05/27 13:27:05;;;;;;;2.63;1.63;;;22.80;93.30;;;;;;5070957;28;20550;-59
2022/05/27 13:29:36;;;;;;;3.77;1.60;;;22.80;93.10;;;;;;5071107;28;20633;-60
2022/05/27 13:32:06;;;;;;;3.97;1.90;;;22.70;93.10;;;;;;5073531;28;20248;-60
2022/05/27 13:34:43;;;;;;;4.23;1.80;;;22.60;93.10;;;;;;5074709;28;20194;-60
2022/05/27 13:37:23;;;;;;;2.23;1.60;;;22.60;93.40;;;;;;5074538;28;20193;-60
2022/05/27 13:39:54;;;;;;;3.87;1.90;;;22.50;93.60;;;;;;5074724;28;20200;-60
2022/05/27 13:42:29;;;;;;;4.53;2.10;;;22.50;93.70;;;;;;5074251;28;20189;-59
2022/05/27 13:44:59;;;;;;;2.97;1.60;;;22.40;93.60;;;;;;5074707;28;20197;-61
2022/05/27 13:47:29;;;;;;;4.23;1.50;;;22.40;93.80;;;;;;5074791;28;20565;-59